sensor_id;sensor_type;location;lat;lon;timestamp;pressure;altitude;pressure_sealevel;temperature;humidity
53514;BME280;39768;54.148;12.174;2022-11-15T00:00:35;101305.34;;;8.22;100.00
53514;BME280;39768;54.148;12.174;2022-11-15T00:04:55;101291.91;;;7.82;100.00
53514;BME280;39768;54.148;12.174;2022-11-15T00:09:16;101295.47;;;7.90;100.00
53514;BME280;39768;54.148;12.174;2022-11-15T00:13:36;101282.34;;;8.04;100.00
53514;BME280;39768;54.148;12.174;2022-11-15T00:17:56;101287.63;;;7.99;100.00
53514;BME280;39768;54.148;12.174;2022-11-15T00:22:16;101284.88;;;7.83;100.00
53514;BME280;39768;54.148;12.174;2022-11-15T00:26:36;101270.72;;;7.71;100.00
53514;BME280;39768;54.148;12.174;2022-11-15T00:31:04;101273.41;;;7.82;100.00
53514;BME280;39768;54.148;12.174;2022-11-15T00:35:24;101258.44;;;7.83;100.00
53514;BME280;39768;54.148;12.174;2022-11-15T00:39:45;101260.19;;;7.79;100.00
53514;BME280;39768;54.148;12.174;2022-11-15T00:44:05;101250.44;;;7.75;100.00
53514;BME280;39768;54.148;12.174;2022-11-15T00:48:24;101253.09;;;7.70;100.00
53514;BME280;39768;54.148;12.174;2022-11-15T00:52:45;101248.69;;;7.74;100.00
53514;BME280;39768;54.148;12.174;2022-11-15T00:57:05;101239.84;;;7.67;100.00
53514;BME280;39768;54.148;12.174;2022-11-15T01:01:25;101249.47;;;7.59;100.00
53514;BME280;39768;54.148;12.174;2022-11-15T01:05:45;101241.59;;;7.64;100.00
53514;BME280;39768;54.148;12.174;2022-11-15T01:10:06;101230.28;;;7.92;100.00
53514;BME280;39768;54.148;12.174;2022-11-15T01:14:26;101224.97;;;7.83;100.00
53514;BME280;39768;54.148;12.174;2022-11-15T01:18:46;101216.06;;;7.72;100.00
53514;BME280;39768;54.148;12.174;2022-11-15T01:23:06;101222.28;;;7.78;100.00
53514;BME280;39768;54.148;12.174;2022-11-15T01:27:26;101214.16;;;7.45;100.00
53514;BME280;39768;54.148;12.174;2022-11-15T01:31:46;101216.97;;;7.74;100.00
53514;BME280;39768;54.148;12.174;2022-11-15T01:36:09;101202.91;;;7.79;100.00
53514;BME280;39768;54.148;12.174;2022-11-15T01:40:30;101193.22;;;7.77;100.00
53514;BME280;39768;54.148;12.174;2022-11-15T01:44:50;101197.44;;;7.48;100.00
53514;BME280;39768;54.148;12.174;2022-11-15T01:49:13;101198.22;;;7.27;100.00
53514;BME280;39768;54.148;12.174;2022-11-15T01:53:35;101204.63;;;7.67;100.00
53514;BME280;39768;54.148;12.174;2022-11-15T01:57:59;101188.59;;;7.42;100.00
53514;BME280;39768;54.148;12.174;2022-11-15T02:02:21;101197.50;;;7.54;100.00
53514;BME280;39768;54.148;12.174;2022-11-15T02:06:41;101186.03;;;7.53;100.00
53514;BME280;39768;54.148;12.174;2022-11-15T02:11:07;101193.06;;;7.48;100.00
53514;BME280;39768;54.148;12.174;2022-11-15T02:15:33;101191.31;;;7.52;100.00
53514;BME280;39768;54.148;12.174;2022-11-15T02:29:53;101195.75;;;7.56;100.00
53514;BME280;39768;54.148;12.174;2022-11-15T02:38:59;101189.63;;;7.64;100.00
53514;BME280;39768;54.148;12.174;2022-11-15T02:43:26;101181.59;;;7.46;100.00
53514;BME280;39768;54.148;12.174;2022-11-15T02:48:07;101172.63;;;7.21;100.00
53514;BME280;39768;54.148;12.174;2022-11-15T02:52:28;101175.44;;;7.49;100.00
53514;BME280;39768;54.148;12.174;2022-11-15T02:56:49;101185.97;;;7.38;100.00
53514;BME280;39768;54.148;12.174;2022-11-15T03:02:01;101179.59;;;7.13;100.00
53514;BME280;39768;54.148;12.174;2022-11-15T03:10:42;101164.63;;;7.07;100.00
53514;BME280;39768;54.148;12.174;2022-11-15T03:15:26;101174.19;;;6.93;100.00
53514;BME280;39768;54.148;12.174;2022-11-15T03:19:54;101175.22;;;7.15;100.00
53514;BME280;39768;54.148;12.174;2022-11-15T03:24:17;101171.75;;;7.21;100.00
53514;BME280;39768;54.148;12.174;2022-11-15T03:28:51;101167.34;;;7.18;100.00
53514;BME280;39768;54.148;12.174;2022-11-15T03:33:13;101158.53;;;7.19;100.00
53514;BME280;39768;54.148;12.174;2022-11-15T03:37:37;101162.94;;;7.20;100.00
53514;BME280;39768;54.148;12.174;2022-11-15T03:42:21;101166.41;;;7.13;100.00
53514;BME280;39768;54.148;12.174;2022-11-15T03:46:50;101163.72;;;7.04;100.00
53514;BME280;39768;54.148;12.174;2022-11-15T03:51:17;101165.38;;;6.93;100.00
53514;BME280;39768;54.148;12.174;2022-11-15T03:55:38;101154.09;;;7.11;100.00
53514;BME280;39768;54.148;12.174;2022-11-15T03:59:58;101161.22;;;7.24;100.00
53514;BME280;39768;54.148;12.174;2022-11-15T04:04:18;101163.84;;;7.22;100.00
53514;BME280;39768;54.148;12.174;2022-11-15T04:08:38;101162.19;;;7.42;100.00
53514;BME280;39768;54.148;12.174;2022-11-15T04:12:58;101163.97;;;7.43;100.00
53514;BME280;39768;54.148;12.174;2022-11-15T04:17:18;101148.03;;;7.28;100.00
53514;BME280;39768;54.148;12.174;2022-11-15T04:21:38;101156.94;;;7.46;100.00
53514;BME280;39768;54.148;12.174;2022-11-15T04:26:20;101151.56;;;7.32;100.00
53514;BME280;39768;54.148;12.174;2022-11-15T04:30:40;101168.47;;;7.57;100.00
53514;BME280;39768;54.148;12.174;2022-11-15T04:35:01;101153.38;;;7.37;100.00
53514;BME280;39768;54.148;12.174;2022-11-15T04:39:20;101147.03;;;7.10;100.00
53514;BME280;39768;54.148;12.174;2022-11-15T04:43:40;101144.31;;;6.96;100.00
53514;BME280;39768;54.148;12.174;2022-11-15T04:48:01;101152.88;;;6.67;100.00
53514;BME280;39768;54.148;12.174;2022-11-15T04:52:21;101156.03;;;6.30;100.00
53514;BME280;39768;54.148;12.174;2022-11-15T04:56:41;101156.16;;;6.45;100.00
53514;BME280;39768;54.148;12.174;2022-11-15T05:01:11;101152.78;;;6.58;100.00
53514;BME280;39768;54.148;12.174;2022-11-15T05:05:33;101156.84;;;6.23;100.00
53514;BME280;39768;54.148;12.174;2022-11-15T05:09:53;101159.59;;;6.35;100.00
53514;BME280;39768;54.148;12.174;2022-11-15T05:14:14;101153.66;;;6.57;100.00
53514;BME280;39768;54.148;12.174;2022-11-15T05:18:34;101156.13;;;6.38;100.00
53514;BME280;39768;54.148;12.174;2022-11-15T05:22:54;101143.00;;;6.47;100.00
53514;BME280;39768;54.148;12.174;2022-11-15T05:27:17;101132.50;;;6.50;100.00
53514;BME280;39768;54.148;12.174;2022-11-15T05:31:39;101128.88;;;6.40;100.00
53514;BME280;39768;54.148;12.174;2022-11-15T05:36:04;101135.00;;;6.39;100.00
53514;BME280;39768;54.148;12.174;2022-11-15T05:40:28;101134.50;;;6.80;100.00
53514;BME280;39768;54.148;12.174;2022-11-15T05:44:49;101126.69;;;6.92;100.00
53514;BME280;39768;54.148;12.174;2022-11-15T05:49:13;101123.97;;;6.84;100.00
53514;BME280;39768;54.148;12.174;2022-11-15T05:53:36;101132.66;;;6.72;100.00
53514;BME280;39768;54.148;12.174;2022-11-15T05:57:56;101142.31;;;6.70;100.00
53514;BME280;39768;54.148;12.174;2022-11-15T06:02:16;101148.50;;;6.71;100.00
53514;BME280;39768;54.148;12.174;2022-11-15T06:06:36;101145.47;;;6.30;100.00
53514;BME280;39768;54.148;12.174;2022-11-15T06:10:56;101148.22;;;6.41;100.00
53514;BME280;39768;54.148;12.174;2022-11-15T06:15:16;101145.09;;;5.96;100.00
53514;BME280;39768;54.148;12.174;2022-11-15T06:19:36;101151.38;;;6.06;100.00
53514;BME280;39768;54.148;12.174;2022-11-15T06:23:56;101152.53;;;6.31;100.00
53514;BME280;39768;54.148;12.174;2022-11-15T06:28:16;101158.78;;;6.42;100.00
53514;BME280;39768;54.148;12.174;2022-11-15T06:32:36;101163.13;;;6.35;100.00
53514;BME280;39768;54.148;12.174;2022-11-15T06:36:56;101174.84;;;6.66;100.00
53514;BME280;39768;54.148;12.174;2022-11-15T06:41:16;101173.84;;;6.52;100.00
53514;BME280;39768;54.148;12.174;2022-11-15T06:45:37;101179.94;;;6.47;100.00
53514;BME280;39768;54.148;12.174;2022-11-15T06:49:57;101180.56;;;6.21;100.00
53514;BME280;39768;54.148;12.174;2022-11-15T06:54:17;101175.00;;;5.98;100.00
53514;BME280;39768;54.148;12.174;2022-11-15T06:58:38;101186.13;;;6.50;100.00
53514;BME280;39768;54.148;12.174;2022-11-15T07:03:00;101193.09;;;6.45;100.00
53514;BME280;39768;54.148;12.174;2022-11-15T07:07:20;101199.31;;;6.50;100.00
53514;BME280;39768;54.148;12.174;2022-11-15T07:11:41;101199.59;;;6.79;100.00
53514;BME280;39768;54.148;12.174;2022-11-15T07:16:08;101197.31;;;7.29;100.00
53514;BME280;39768;54.148;12.174;2022-11-15T07:20:29;101204.50;;;7.47;100.00
53514;BME280;39768;54.148;12.174;2022-11-15T07:24:50;101200.94;;;7.40;100.00
53514;BME280;39768;54.148;12.174;2022-11-15T07:29:10;101201.91;;;7.59;100.00
53514;BME280;39768;54.148;12.174;2022-11-15T07:33:30;101197.59;;;7.73;100.00
53514;BME280;39768;54.148;12.174;2022-11-15T07:37:59;101198.56;;;7.94;100.00
53514;BME280;39768;54.148;12.174;2022-11-15T07:42:19;101207.50;;;8.16;100.00
53514;BME280;39768;54.148;12.174;2022-11-15T07:46:58;101203.03;;;8.08;100.00
53514;BME280;39768;54.148;12.174;2022-11-15T07:51:19;101212.78;;;8.23;100.00
53514;BME280;39768;54.148;12.174;2022-11-15T07:55:40;101209.38;;;8.42;100.00
53514;BME280;39768;54.148;12.174;2022-11-15T08:00:01;101212.94;;;8.60;100.00
53514;BME280;39768;54.148;12.174;2022-11-15T08:04:21;101218.22;;;8.60;100.00
53514;BME280;39768;54.148;12.174;2022-11-15T08:08:41;101208.53;;;8.60;100.00
53514;BME280;39768;54.148;12.174;2022-11-15T08:13:05;101212.00;;;8.47;100.00
53514;BME280;39768;54.148;12.174;2022-11-15T08:17:25;101215.53;;;8.38;100.00
53514;BME280;39768;54.148;12.174;2022-11-15T08:21:46;101216.44;;;8.54;100.00
53514;BME280;39768;54.148;12.174;2022-11-15T08:26:06;101219.13;;;8.69;100.00
53514;BME280;39768;54.148;12.174;2022-11-15T08:30:26;101215.56;;;8.54;100.00
53514;BME280;39768;54.148;12.174;2022-11-15T08:34:47;101200.53;;;8.46;100.00
53514;BME280;39768;54.148;12.174;2022-11-15T08:39:10;101191.78;;;8.81;100.00
53514;BME280;39768;54.148;12.174;2022-11-15T08:43:31;101190.00;;;8.81;100.00
53514;BME280;39768;54.148;12.174;2022-11-15T08:47:52;101186.47;;;9.30;100.00
53514;BME280;39768;54.148;12.174;2022-11-15T08:52:14;101189.13;;;9.02;100.00
53514;BME280;39768;54.148;12.174;2022-11-15T08:56:34;101192.63;;;9.41;100.00
53514;BME280;39768;54.148;12.174;2022-11-15T09:00:54;101189.09;;;9.22;100.00
53514;BME280;39768;54.148;12.174;2022-11-15T09:05:14;101187.31;;;9.36;100.00
53514;BME280;39768;54.148;12.174;2022-11-15T09:09:35;101192.59;;;9.54;100.00
53514;BME280;39768;54.148;12.174;2022-11-15T09:13:55;101210.31;;;9.07;100.00
53514;BME280;39768;54.148;12.174;2022-11-15T09:18:15;101197.88;;;9.51;100.00
53514;BME280;39768;54.148;12.174;2022-11-15T09:22:35;101210.28;;;9.25;100.00
53514;BME280;39768;54.148;12.174;2022-11-15T09:26:56;101222.59;;;9.66;100.00
53514;BME280;39768;54.148;12.174;2022-11-15T09:31:16;101220.81;;;9.72;100.00
53514;BME280;39768;54.148;12.174;2022-11-15T09:35:41;101218.22;;;9.62;100.00
53514;BME280;39768;54.148;12.174;2022-11-15T09:40:01;101214.69;;;9.35;100.00
53514;BME280;39768;54.148;12.174;2022-11-15T09:49:18;101204.03;;;9.66;100.00
53514;BME280;39768;54.148;12.174;2022-11-15T09:53:46;101195.97;;;9.99;100.00
53514;BME280;39768;54.148;12.174;2022-11-15T09:58:18;101188.97;;;9.84;100.00
53514;BME280;39768;54.148;12.174;2022-11-15T10:06:51;101195.88;;;10.28;100.00
53514;BME280;39768;54.148;12.174;2022-11-15T10:11:00;101189.69;;;10.24;100.00
53514;BME280;39768;54.148;12.174;2022-11-15T10:15:23;101186.25;;;9.95;100.00
53514;BME280;39768;54.148;12.174;2022-11-15T10:23:52;101174.75;;;9.96;100.00
53514;BME280;39768;54.148;12.174;2022-11-15T10:28:21;101166.66;;;10.39;100.00
53514;BME280;39768;54.148;12.174;2022-11-15T10:32:22;101161.44;;;10.10;100.00
53514;BME280;39768;54.148;12.174;2022-11-15T10:36:24;101151.63;;;10.32;100.00
53514;BME280;39768;54.148;12.174;2022-11-15T10:40:26;101140.03;;;10.49;100.00
53514;BME280;39768;54.148;12.174;2022-11-15T10:44:29;101142.59;;;10.57;100.00
53514;BME280;39768;54.148;12.174;2022-11-15T10:48:30;101140.03;;;10.48;100.00
53514;BME280;39768;54.148;12.174;2022-11-15T10:52:35;101134.75;;;10.42;100.00
53514;BME280;39768;54.148;12.174;2022-11-15T10:56:37;101131.94;;;10.65;100.00
53514;BME280;39768;54.148;12.174;2022-11-15T11:00:38;101126.63;;;10.65;100.00
53514;BME280;39768;54.148;12.174;2022-11-15T11:04:49;101126.88;;;10.33;100.00
53514;BME280;39768;54.148;12.174;2022-11-15T11:09:05;101122.09;;;10.80;100.00
53514;BME280;39768;54.148;12.174;2022-11-15T11:13:19;101132.34;;;11.15;100.00
53514;BME280;39768;54.148;12.174;2022-11-15T11:17:32;101136.06;;;10.99;100.00
53514;BME280;39768;54.148;12.174;2022-11-15T11:21:49;101129.41;;;11.44;100.00
53514;BME280;39768;54.148;12.174;2022-11-15T11:30:34;101119.47;;;10.74;100.00
53514;BME280;39768;54.148;12.174;2022-11-15T11:35:12;101115.34;;;11.35;100.00
53514;BME280;39768;54.148;12.174;2022-11-15T11:43:58;101125.66;;;11.62;100.00
53514;BME280;39768;54.148;12.174;2022-11-15T11:48:12;101116.91;;;11.54;100.00
53514;BME280;39768;54.148;12.174;2022-11-15T11:52:28;101129.50;;;11.35;100.00
53514;BME280;39768;54.148;12.174;2022-11-15T11:56:34;101121.81;;;11.08;100.00
53514;BME280;39768;54.148;12.174;2022-11-15T12:00:41;101126.88;;;11.34;100.00
53514;BME280;39768;54.148;12.174;2022-11-15T12:04:48;101128.59;;;11.38;100.00
53514;BME280;39768;54.148;12.174;2022-11-15T12:08:59;101126.38;;;11.78;100.00
53514;BME280;39768;54.148;12.174;2022-11-15T12:13:15;101129.13;;;11.69;100.00
53514;BME280;39768;54.148;12.174;2022-11-15T12:17:22;101131.69;;;11.79;100.00
53514;BME280;39768;54.148;12.174;2022-11-15T12:21:39;101124.78;;;11.60;100.00
53514;BME280;39768;54.148;12.174;2022-11-15T12:26:07;101118.88;;;11.35;100.00
53514;BME280;39768;54.148;12.174;2022-11-15T12:30:15;101114.50;;;11.29;100.00
53514;BME280;39768;54.148;12.174;2022-11-15T12:39:00;101112.72;;;11.30;100.00
53514;BME280;39768;54.148;12.174;2022-11-15T12:43:10;101105.69;;;11.27;100.00
53514;BME280;39768;54.148;12.174;2022-11-15T12:47:26;101105.91;;;11.03;100.00
53514;BME280;39768;54.148;12.174;2022-11-15T13:04:26;101089.50;;;11.46;100.00
53514;BME280;39768;54.148;12.174;2022-11-15T13:08:36;101080.06;;;11.19;100.00
53514;BME280;39768;54.148;12.174;2022-11-15T13:16:43;101090.94;;;10.98;100.00
53514;BME280;39768;54.148;12.174;2022-11-15T13:20:45;101085.41;;;11.16;100.00
53514;BME280;39768;54.148;12.174;2022-11-15T13:24:46;101073.72;;;11.34;100.00
53514;BME280;39768;54.148;12.174;2022-11-15T13:28:49;101071.97;;;11.28;100.00
53514;BME280;39768;54.148;12.174;2022-11-15T13:32:53;101064.13;;;11.19;100.00
53514;BME280;39768;54.148;12.174;2022-11-15T13:36:55;101054.56;;;11.78;100.00
53514;BME280;39768;54.148;12.174;2022-11-15T13:40:58;101050.78;;;11.94;100.00
53514;BME280;39768;54.148;12.174;2022-11-15T13:45:02;101049.25;;;11.78;100.00
53514;BME280;39768;54.148;12.174;2022-11-15T13:49:07;101046.81;;;11.58;100.00
53514;BME280;39768;54.148;12.174;2022-11-15T13:53:09;101032.59;;;11.62;100.00
53514;BME280;39768;54.148;12.174;2022-11-15T13:57:23;101032.34;;;11.10;100.00
53514;BME280;39768;54.148;12.174;2022-11-15T14:01:30;101034.72;;;11.34;100.00
53514;BME280;39768;54.148;12.174;2022-11-15T14:05:32;101044.56;;;11.26;100.00
53514;BME280;39768;54.148;12.174;2022-11-15T14:09:36;101051.28;;;10.76;100.00
53514;BME280;39768;54.148;12.174;2022-11-15T14:13:38;101049.81;;;11.32;100.00
53514;BME280;39768;54.148;12.174;2022-11-15T14:17:40;101056.00;;;11.32;100.00
53514;BME280;39768;54.148;12.174;2022-11-15T14:22:12;101040.03;;;10.50;100.00
53514;BME280;39768;54.148;12.174;2022-11-15T14:26:34;101031.63;;;10.97;100.00
53514;BME280;39768;54.148;12.174;2022-11-15T14:30:36;101036.88;;;11.00;100.00
53514;BME280;39768;54.148;12.174;2022-11-15T14:34:41;101043.72;;;11.21;100.00
53514;BME280;39768;54.148;12.174;2022-11-15T14:38:43;101030.72;;;10.98;100.00
53514;BME280;39768;54.148;12.174;2022-11-15T14:42:46;101038.59;;;11.04;100.00
53514;BME280;39768;54.148;12.174;2022-11-15T14:46:48;101029.00;;;10.92;100.00
53514;BME280;39768;54.148;12.174;2022-11-15T14:50:49;101029.06;;;10.86;100.00
53514;BME280;39768;54.148;12.174;2022-11-15T14:54:51;101029.16;;;10.77;100.00
53514;BME280;39768;54.148;12.174;2022-11-15T14:58:52;101029.34;;;10.56;100.00
53514;BME280;39768;54.148;12.174;2022-11-15T15:02:56;101031.88;;;10.70;100.00
53514;BME280;39768;54.148;12.174;2022-11-15T15:06:58;101033.00;;;10.46;100.00
53514;BME280;39768;54.148;12.174;2022-11-15T15:11:01;101043.56;;;10.52;100.00
53514;BME280;39768;54.148;12.174;2022-11-15T15:15:03;101043.63;;;10.40;100.00
53514;BME280;39768;54.148;12.174;2022-11-15T15:19:05;101025.13;;;10.34;100.00
53514;BME280;39768;54.148;12.174;2022-11-15T15:23:17;101031.63;;;9.85;100.00
53514;BME280;39768;54.148;12.174;2022-11-15T15:27:20;101034.19;;;9.99;100.00
53514;BME280;39768;54.148;12.174;2022-11-15T15:31:22;101040.41;;;9.95;100.00
53514;BME280;39768;54.148;12.174;2022-11-15T15:35:44;101043.88;;;10.08;100.00
53514;BME280;39768;54.148;12.174;2022-11-15T15:40:18;101045.56;;;10.16;100.00
53514;BME280;39768;54.148;12.174;2022-11-15T15:44:41;101041.16;;;10.14;100.00
53514;BME280;39768;54.148;12.174;2022-11-15T15:48:42;101036.63;;;10.37;100.00
53514;BME280;39768;54.148;12.174;2022-11-15T15:52:44;101040.28;;;10.19;100.00
53514;BME280;39768;54.148;12.174;2022-11-15T15:56:46;101047.28;;;10.25;100.00
53514;BME280;39768;54.148;12.174;2022-11-15T16:00:53;101041.34;;;9.83;100.00
53514;BME280;39768;54.148;12.174;2022-11-15T16:04:55;101036.75;;;10.11;100.00
53514;BME280;39768;54.148;12.174;2022-11-15T16:08:56;101038.53;;;10.09;100.00
53514;BME280;39768;54.148;12.174;2022-11-15T16:13:15;101032.22;;;10.35;100.00
53514;BME280;39768;54.148;12.174;2022-11-15T16:17:19;101033.13;;;10.29;100.00
53514;BME280;39768;54.148;12.174;2022-11-15T16:21:21;101027.22;;;9.86;100.00
53514;BME280;39768;54.148;12.174;2022-11-15T16:25:22;101025.63;;;9.50;100.00
53514;BME280;39768;54.148;12.174;2022-11-15T16:29:24;101022.94;;;9.64;100.00
53514;BME280;39768;54.148;12.174;2022-11-15T16:33:26;101023.66;;;9.87;100.00
53514;BME280;39768;54.148;12.174;2022-11-15T16:37:27;101025.53;;;9.68;100.00
53514;BME280;39768;54.148;12.174;2022-11-15T16:41:29;101021.97;;;9.75;100.00
53514;BME280;39768;54.148;12.174;2022-11-15T16:45:33;101027.31;;;9.68;100.00
53514;BME280;39768;54.148;12.174;2022-11-15T16:49:35;101035.97;;;9.99;100.00
53514;BME280;39768;54.148;12.174;2022-11-15T16:53:37;101033.38;;;9.93;100.00
53514;BME280;39768;54.148;12.174;2022-11-15T16:57:38;101024.56;;;9.83;100.00
53514;BME280;39768;54.148;12.174;2022-11-15T17:01:41;101022.75;;;9.93;100.00
53514;BME280;39768;54.148;12.174;2022-11-15T17:05:57;101023.84;;;9.57;100.00
53514;BME280;39768;54.148;12.174;2022-11-15T17:09:58;101028.09;;;9.86;100.00
53514;BME280;39768;54.148;12.174;2022-11-15T17:14:00;101027.97;;;10.05;100.00
53514;BME280;39768;54.148;12.174;2022-11-15T17:18:01;101026.13;;;10.20;100.00
53514;BME280;39768;54.148;12.174;2022-11-15T17:22:03;101018.25;;;10.05;100.00
53514;BME280;39768;54.148;12.174;2022-11-15T17:26:05;101011.31;;;9.80;100.00
53514;BME280;39768;54.148;12.174;2022-11-15T17:30:26;101013.75;;;10.19;100.00
53514;BME280;39768;54.148;12.174;2022-11-15T17:34:28;101011.97;;;10.15;100.00
53514;BME280;39768;54.148;12.174;2022-11-15T17:38:29;101017.16;;;10.35;100.00
53514;BME280;39768;54.148;12.174;2022-11-15T17:42:31;101016.41;;;10.21;100.00
53514;BME280;39768;54.148;12.174;2022-11-15T17:46:33;101023.47;;;10.13;100.00
53514;BME280;39768;54.148;12.174;2022-11-15T17:50:36;101030.44;;;10.34;100.00
53514;BME280;39768;54.148;12.174;2022-11-15T17:54:38;101032.19;;;10.38;100.00
53514;BME280;39768;54.148;12.174;2022-11-15T17:58:39;101034.88;;;10.33;100.00
53514;BME280;39768;54.148;12.174;2022-11-15T18:02:41;101023.41;;;10.25;100.00
53514;BME280;39768;54.148;12.174;2022-11-15T18:06:42;101030.44;;;10.35;100.00
53514;BME280;39768;54.148;12.174;2022-11-15T18:10:44;101030.34;;;10.44;100.00
53514;BME280;39768;54.148;12.174;2022-11-15T18:14:45;101032.41;;;10.01;100.00
53514;BME280;39768;54.148;12.174;2022-11-15T18:18:48;101034.00;;;10.31;100.00
53514;BME280;39768;54.148;12.174;2022-11-15T18:22:51;101020.75;;;10.30;100.00
53514;BME280;39768;54.148;12.174;2022-11-15T18:26:53;101006.59;;;10.29;100.00
53514;BME280;39768;54.148;12.174;2022-11-15T18:30:55;100997.03;;;10.07;100.00
53514;BME280;39768;54.148;12.174;2022-11-15T18:34:56;101005.00;;;10.05;100.00
53514;BME280;39768;54.148;12.174;2022-11-15T18:39:02;101007.63;;;10.08;100.00
53514;BME280;39768;54.148;12.174;2022-11-15T18:43:04;101003.47;;;9.66;100.00
53514;BME280;39768;54.148;12.174;2022-11-15T18:47:06;101014.63;;;10.17;100.00
53514;BME280;39768;54.148;12.174;2022-11-15T18:51:12;101018.91;;;10.38;100.00
53514;BME280;39768;54.148;12.174;2022-11-15T18:55:15;101013.72;;;10.18;100.00
53514;BME280;39768;54.148;12.174;2022-11-15T18:59:16;101009.31;;;10.20;100.00
53514;BME280;39768;54.148;12.174;2022-11-15T19:03:17;101009.97;;;10.48;100.00
53514;BME280;39768;54.148;12.174;2022-11-15T19:07:24;101006.88;;;9.86;100.00
53514;BME280;39768;54.148;12.174;2022-11-15T19:11:32;101005.81;;;10.10;100.00
53514;BME280;39768;54.148;12.174;2022-11-15T19:15:35;101011.19;;;10.04;100.00
53514;BME280;39768;54.148;12.174;2022-11-15T19:19:37;101006.78;;;10.03;100.00
53514;BME280;39768;54.148;12.174;2022-11-15T19:23:40;101001.59;;;9.85;100.00
53514;BME280;39768;54.148;12.174;2022-11-15T19:27:42;101013.88;;;9.95;100.00
53514;BME280;39768;54.148;12.174;2022-11-15T19:31:44;101008.66;;;9.81;100.00
53514;BME280;39768;54.148;12.174;2022-11-15T19:35:46;101015.50;;;10.23;100.00
53514;BME280;39768;54.148;12.174;2022-11-15T19:39:48;101010.22;;;10.13;100.00
53514;BME280;39768;54.148;12.174;2022-11-15T19:43:50;101010.13;;;10.30;100.00
53514;BME280;39768;54.148;12.174;2022-11-15T19:47:52;101010.22;;;10.10;100.00
53514;BME280;39768;54.148;12.174;2022-11-15T19:51:53;101006.78;;;10.02;100.00
53514;BME280;39768;54.148;12.174;2022-11-15T19:55:56;101001.38;;;10.11;100.00
53514;BME280;39768;54.148;12.174;2022-11-15T19:59:58;101006.66;;;10.23;100.00
53514;BME280;39768;54.148;12.174;2022-11-15T20:04:07;100997.13;;;9.90;100.00
53514;BME280;39768;54.148;12.174;2022-11-15T20:08:10;100999.69;;;10.07;100.00
53514;BME280;39768;54.148;12.174;2022-11-15T20:12:11;100999.63;;;10.10;100.00
53514;BME280;39768;54.148;12.174;2022-11-15T20:16:16;101005.00;;;10.05;100.00
53514;BME280;39768;54.148;12.174;2022-11-15T20:20:18;101005.91;;;9.98;100.00
53514;BME280;39768;54.148;12.174;2022-11-15T20:24:19;101003.34;;;9.83;100.00
53514;BME280;39768;54.148;12.174;2022-11-15T20:28:25;100995.47;;;9.75;100.00
53514;BME280;39768;54.148;12.174;2022-11-15T20:32:27;100991.03;;;9.79;100.00
53514;BME280;39768;54.148;12.174;2022-11-15T20:36:30;100994.59;;;9.75;100.00
53514;BME280;39768;54.148;12.174;2022-11-15T20:40:32;100994.50;;;9.87;100.00
53514;BME280;39768;54.148;12.174;2022-11-15T20:44:34;100983.97;;;9.78;100.00
53514;BME280;39768;54.148;12.174;2022-11-15T20:48:35;100987.34;;;9.95;100.00
53514;BME280;39768;54.148;12.174;2022-11-15T20:52:57;100972.41;;;9.88;100.00
53514;BME280;39768;54.148;12.174;2022-11-15T20:57:18;100980.25;;;10.05;100.00
53514;BME280;39768;54.148;12.174;2022-11-15T21:01:40;100989.09;;;9.99;100.00
53514;BME280;39768;54.148;12.174;2022-11-15T21:06:02;100982.88;;;10.05;100.00
53514;BME280;39768;54.148;12.174;2022-11-15T21:10:23;100998.72;;;10.15;100.00
53514;BME280;39768;54.148;12.174;2022-11-15T21:15:04;100986.56;;;9.87;100.00
53514;BME280;39768;54.148;12.174;2022-11-15T21:19:25;100987.19;;;10.18;100.00
53514;BME280;39768;54.148;12.174;2022-11-15T21:23:54;100971.22;;;10.25;100.00
53514;BME280;39768;54.148;12.174;2022-11-15T21:28:16;100964.91;;;10.40;100.00
53514;BME280;39768;54.148;12.174;2022-11-15T21:32:18;100969.66;;;10.00;100.00
53514;BME280;39768;54.148;12.174;2022-11-15T21:36:20;100965.31;;;9.90;100.00
53514;BME280;39768;54.148;12.174;2022-11-15T21:40:21;100957.22;;;10.08;100.00
53514;BME280;39768;54.148;12.174;2022-11-15T21:44:23;100957.13;;;10.23;100.00
53514;BME280;39768;54.148;12.174;2022-11-15T21:48:25;100963.97;;;10.46;100.00
53514;BME280;39768;54.148;12.174;2022-11-15T21:52:27;100953.50;;;10.31;100.00
53514;BME280;39768;54.148;12.174;2022-11-15T21:56:29;100957.00;;;10.39;100.00
53514;BME280;39768;54.148;12.174;2022-11-15T22:00:30;100946.38;;;10.39;100.00
53514;BME280;39768;54.148;12.174;2022-11-15T22:04:50;100924.44;;;10.14;100.00
53514;BME280;39768;54.148;12.174;2022-11-15T22:08:52;100923.66;;;10.03;100.00
53514;BME280;39768;54.148;12.174;2022-11-15T22:12:53;100918.22;;;10.18;100.00
53514;BME280;39768;54.148;12.174;2022-11-15T22:16:55;100918.22;;;10.22;100.00
53514;BME280;39768;54.148;12.174;2022-11-15T22:21:08;100920.91;;;10.13;100.00
53514;BME280;39768;54.148;12.174;2022-11-15T22:25:11;100915.59;;;10.19;100.00
53514;BME280;39768;54.148;12.174;2022-11-15T22:29:12;100919.88;;;10.36;100.00
53514;BME280;39768;54.148;12.174;2022-11-15T22:33:15;100920.91;;;10.12;100.00
53514;BME280;39768;54.148;12.174;2022-11-15T22:37:17;100931.44;;;10.24;100.00
53514;BME280;39768;54.148;12.174;2022-11-15T22:41:21;100947.28;;;10.38;100.00